createdAt,value
2018-11-14T00:01:55.294Z,123.30
2018-11-14T00:04:25.415Z,123.73
2018-11-14T00:06:55.374Z,143.27
2018-11-14T00:09:25.268Z,123.83
2018-11-14T00:11:55.154Z,111.23
2018-11-14T00:14:25.115Z,89.83
2018-11-14T00:16:55.595Z,120.50
2018-11-14T00:19:25.535Z,146.57
2018-11-14T00:21:55.434Z,111.93
2018-11-14T00:24:25.858Z,124.93
2018-11-14T00:26:55.864Z,101.37
2018-11-14T00:29:25.919Z,121.90
2018-11-14T00:31:55.694Z,134.07
2018-11-14T00:34:25.430Z,223.37
2018-11-14T00:36:55.088Z,323.77
2018-11-14T00:39:24.916Z,170.80
2018-11-14T00:41:54.335Z,145.23
2018-11-14T00:44:23.856Z,115.27
2018-11-14T00:46:54.075Z,119.90
2018-11-14T00:49:23.761Z,237.03
2018-11-14T00:51:53.596Z,180.30
2018-11-14T00:54:23.495Z,202.47
2018-11-14T00:56:52.997Z,135.53
2018-11-14T00:59:23.115Z,189.13
2018-11-14T01:01:54.307Z,183.10
2018-11-14T01:04:24.635Z,181.70
2018-11-14T01:06:54.396Z,267.00
2018-11-14T01:09:24.875Z,163.27
2018-11-14T01:11:55.015Z,420.73
2018-11-14T01:14:24.635Z,290.53
2018-11-14T01:16:54.115Z,304.40
2018-11-14T01:19:24.416Z,588.10
2018-11-14T01:21:54.556Z,145.20
2018-11-14T01:24:24.495Z,203.37
2018-11-14T01:26:54.217Z,228.70
2018-11-14T01:29:24.338Z,186.07
2018-11-14T01:31:54.035Z,152.20
2018-11-14T01:34:23.615Z,151.37
2018-11-14T01:36:54.055Z,210.07
2018-11-14T01:39:23.998Z,175.20
2018-11-14T01:41:55.795Z,243.13
2018-11-14T01:44:25.656Z,380.30
2018-11-14T01:46:55.016Z,249.77
2018-11-14T01:49:25.555Z,218.40
2018-11-14T01:51:55.195Z,215.97
2018-11-14T01:54:26.635Z,238.13
2018-11-14T01:56:56.415Z,110.10
2018-11-14T01:59:26.515Z,538.73
2018-11-14T02:01:56.335Z,330.47
2018-11-14T02:04:26.020Z,268.03
2018-11-14T02:06:55.755Z,439.73
2018-11-14T02:09:25.475Z,382.20
2018-11-14T02:11:55.336Z,367.73
2018-11-14T02:14:25.177Z,259.30
2018-11-14T02:16:59.375Z,433.23
2018-11-14T02:19:29.174Z,433.20
2018-11-14T02:22:00.194Z,378.30
2018-11-14T02:24:30.836Z,297.13
2018-11-14T02:27:00.714Z,289.57
2018-11-14T02:29:30.416Z,397.67
2018-11-14T02:32:00.022Z,373.53
2018-11-14T02:34:29.895Z,356.30
2018-11-14T02:37:00.315Z,252.47
2018-11-14T02:39:30.694Z,236.63
2018-11-14T02:42:01.615Z,198.80
2018-11-14T02:44:31.535Z,215.27
2018-11-14T02:47:01.294Z,169.83
2018-11-14T02:49:31.378Z,138.10
2018-11-14T02:52:01.075Z,215.83
2018-11-14T02:54:31.174Z,264.30
2018-11-14T02:57:01.255Z,136.77
2018-11-14T02:59:30.915Z,172.43
2018-11-14T03:02:05.257Z,170.10
2018-11-14T03:04:34.977Z,111.73
2018-11-14T03:07:10.217Z,160.93
2018-11-14T03:09:39.977Z,107.33
2018-11-14T03:12:09.895Z,128.77
2018-11-14T03:14:40.020Z,144.10
2018-11-14T03:17:10.000Z,310.17
2018-11-14T03:19:39.980Z,306.73
2018-11-14T03:22:09.961Z,260.87
2018-11-14T03:24:42.958Z,165.77
2018-11-14T03:27:13.497Z,159.93
2018-11-14T03:29:43.077Z,350.07
2018-11-14T03:32:12.878Z,254.63
2018-11-14T03:34:43.018Z,372.23
2018-11-14T03:37:13.177Z,222.33
2018-11-14T03:39:43.397Z,381.00
2018-11-14T03:42:13.258Z,325.17
2018-11-14T03:44:43.078Z,279.83
2018-11-14T03:47:17.017Z,275.30
2018-11-14T03:49:46.738Z,187.10
2018-11-14T03:52:16.439Z,285.47
2018-11-14T03:54:46.517Z,211.10
2018-11-14T03:57:15.977Z,164.70
2018-11-14T03:59:54.197Z,196.13
2018-11-14T04:02:24.135Z,204.03
2018-11-14T04:04:53.997Z,170.67
2018-11-14T04:07:28.844Z,203.47
2018-11-14T04:09:58.541Z,264.57
2018-11-14T04:12:28.377Z,253.63
2018-11-14T04:14:58.257Z,185.73
2018-11-14T04:17:27.817Z,167.10
2018-11-14T04:20:01.797Z,164.03
2018-11-14T04:22:31.437Z,162.93
2018-11-14T04:25:01.358Z,120.10
2018-11-14T04:27:30.957Z,92.93
2018-11-14T04:30:00.785Z,113.33
2018-11-14T04:32:30.698Z,183.10
2018-11-14T04:35:01.118Z,203.57
2018-11-14T04:37:31.608Z,358.50
2018-11-14T04:40:01.738Z,396.07
2018-11-14T04:42:32.138Z,120.33
2018-11-14T04:45:02.119Z,260.23
2018-11-14T04:47:31.857Z,195.60
2018-11-14T04:50:02.377Z,326.53
2018-11-14T04:52:31.898Z,153.10
2018-11-14T04:55:01.458Z,110.83
2018-11-14T04:57:31.657Z,208.43
2018-11-14T05:00:01.417Z,139.87
2018-11-14T05:02:31.564Z,204.00
2018-11-14T05:05:01.276Z,187.43
2018-11-14T05:07:31.236Z,230.03
2018-11-14T05:10:01.476Z,236.00
2018-11-14T05:12:31.256Z,256.33
2018-11-14T05:15:01.339Z,216.33
2018-11-14T05:17:31.316Z,135.00
2018-11-14T05:20:01.036Z,357.73
2018-11-14T05:22:31.097Z,256.33
2018-11-14T05:25:01.683Z,177.93
2018-11-14T05:27:31.876Z,220.20
2018-11-14T05:30:01.438Z,300.17
2018-11-14T05:32:32.316Z,257.33
2018-11-14T05:35:02.058Z,211.77
2018-11-14T05:37:31.656Z,146.40
2018-11-14T05:40:01.326Z,256.57
2018-11-14T05:42:31.156Z,266.87
2018-11-14T05:45:00.856Z,233.63
2018-11-14T05:47:34.543Z,248.20
2018-11-14T05:50:04.417Z,300.37
2018-11-14T05:52:35.376Z,253.37
2018-11-14T05:55:05.102Z,154.83
2018-11-14T05:57:35.177Z,155.47
2018-11-14T06:00:06.219Z,139.93
2018-11-14T06:02:41.679Z,130.87
2018-11-14T06:05:11.456Z,152.40
2018-11-14T06:07:41.255Z,135.50
2018-11-14T06:10:12.416Z,135.67
2018-11-14T06:12:43.216Z,179.27
2018-11-14T06:15:17.540Z,144.03
2018-11-14T06:17:47.558Z,158.47
2018-11-14T06:20:18.456Z,88.07
2018-11-14T06:22:49.596Z,156.20
2018-11-14T06:25:27.498Z,152.93
2018-11-14T06:27:57.896Z,108.57
2018-11-14T06:30:27.617Z,157.73
2018-11-14T06:32:58.377Z,112.77
2018-11-14T06:35:28.356Z,97.33
2018-11-14T06:37:58.537Z,102.53
2018-11-14T06:40:28.336Z,153.00
2018-11-14T06:42:58.391Z,153.73
2018-11-14T06:45:29.416Z,168.47
2018-11-14T06:48:00.076Z,133.87
2018-11-14T06:50:29.422Z,133.23
2018-11-14T06:53:00.637Z,136.37
2018-11-14T06:55:31.707Z,196.93
2018-11-14T06:58:01.416Z,160.93
2018-11-14T07:00:32.077Z,164.13
2018-11-14T07:03:03.312Z,185.07
2018-11-14T07:05:33.872Z,178.73
2018-11-14T07:08:03.677Z,145.07
2018-11-14T07:10:35.357Z,179.43
2018-11-14T07:13:13.737Z,145.83
2018-11-14T07:15:44.238Z,129.47
2018-11-14T07:18:14.097Z,177.13
2018-11-14T07:20:46.396Z,202.27
2018-11-14T07:23:16.298Z,176.50
2018-11-14T07:25:46.057Z,172.77
2018-11-14T07:28:15.738Z,156.77
2018-11-14T07:30:45.924Z,139.80
2018-11-14T07:33:15.336Z,139.87
2018-11-14T07:35:46.999Z,113.93
2018-11-14T07:38:50.556Z,141.50
2018-11-14T07:41:29.797Z,125.80
2018-11-14T07:43:59.359Z,125.27
2018-11-14T07:46:31.694Z,125.17
2018-11-14T07:49:01.992Z,83.50
2018-11-14T07:51:31.634Z,87.50
2018-11-14T07:54:01.175Z,91.27
2018-11-14T07:56:35.123Z,96.47
2018-11-14T07:59:04.675Z,73.77
2018-11-14T08:01:34.421Z,120.60
2018-11-14T08:04:04.621Z,112.10
2018-11-14T08:06:34.461Z,163.43
2018-11-14T08:09:08.540Z,149.10
2018-11-14T08:11:38.262Z,242.83
2018-11-14T08:14:14.862Z,213.70
2018-11-14T08:16:45.022Z,140.83
2018-11-14T08:19:14.481Z,329.33
2018-11-14T08:21:44.682Z,182.90
2018-11-14T08:24:14.148Z,202.03
2018-11-14T08:26:43.921Z,180.03
2018-11-14T08:29:17.562Z,169.40
2018-11-14T08:31:47.442Z,133.77
2018-11-14T08:34:17.358Z,139.57
2018-11-14T08:36:46.858Z,157.30
2018-11-14T08:39:17.183Z,156.77
2018-11-14T08:41:47.118Z,157.63
2018-11-14T08:44:17.304Z,134.33
2018-11-14T08:46:46.863Z,136.73
2018-11-14T08:49:16.618Z,143.53
2018-11-14T08:51:46.467Z,140.13
2018-11-14T08:54:16.138Z,144.80
2018-11-14T08:56:45.898Z,135.00
2018-11-14T08:59:15.719Z,128.63
2018-11-14T09:01:45.359Z,145.20
2018-11-14T09:04:16.337Z,127.03
2018-11-14T09:06:46.857Z,115.13
2018-11-14T09:09:16.657Z,127.03
2018-11-14T09:11:47.497Z,120.43
2018-11-14T09:14:17.209Z,104.80
2018-11-14T09:16:46.978Z,110.60
2018-11-14T09:19:16.537Z,108.43
2018-11-14T09:21:47.856Z,110.17
2018-11-14T09:24:17.676Z,112.50
2018-11-14T09:26:47.135Z,111.63
2018-11-14T09:29:17.254Z,90.13
2018-11-14T09:31:46.915Z,87.67
2018-11-14T09:34:16.715Z,83.67
2018-11-14T09:36:46.514Z,90.83
2018-11-14T09:39:16.675Z,88.77
2018-11-14T09:41:46.136Z,82.77
2018-11-14T09:44:15.754Z,85.40
2018-11-14T09:46:45.315Z,79.97
2018-11-14T09:49:21.794Z,75.07
2018-11-14T09:51:51.455Z,68.80
2018-11-14T09:54:21.254Z,67.43
2018-11-14T09:56:50.957Z,65.43
2018-11-14T09:59:20.455Z,63.03
2018-11-14T10:01:50.125Z,50.13
2018-11-14T10:04:19.802Z,56.63
2018-11-14T10:06:49.383Z,47.07
2018-11-14T10:09:19.323Z,48.57
2018-11-14T10:11:49.592Z,38.80
2018-11-14T10:14:19.282Z,37.07
2018-11-14T10:16:48.924Z,33.70
2018-11-14T10:19:18.765Z,34.43
2018-11-14T10:21:48.762Z,34.27
2018-11-14T10:24:18.803Z,33.90
2018-11-14T10:26:48.987Z,32.67
2018-11-14T10:29:19.063Z,33.23
2018-11-14T10:31:48.839Z,33.30
2018-11-14T10:34:19.023Z,32.90
2018-11-14T10:36:48.882Z,28.80
2018-11-14T10:39:18.767Z,27.60
2018-11-14T10:41:48.323Z,24.37
2018-11-14T10:44:18.582Z,25.27
2018-11-14T10:46:48.545Z,23.87
2018-11-14T10:49:18.222Z,21.77
2018-11-14T10:51:49.222Z,25.27
2018-11-14T10:54:19.142Z,25.07
2018-11-14T10:56:48.643Z,25.60
2018-11-14T10:59:18.903Z,31.23
2018-11-14T11:01:53.916Z,28.70
2018-11-14T11:04:28.995Z,26.87
2018-11-14T11:07:03.860Z,25.70
2018-11-14T11:09:39.222Z,25.37
2018-11-14T11:12:16.142Z,23.53
2018-11-14T11:14:51.439Z,26.80
2018-11-14T11:18:24.779Z,25.07
2018-11-14T11:20:54.919Z,25.23
2018-11-14T11:23:24.687Z,23.80
2018-11-14T11:25:54.706Z,21.07
2018-11-14T11:28:28.899Z,20.77
2018-11-14T11:33:32.401Z,19.47
2018-11-14T11:36:02.759Z,18.23
2018-11-14T11:38:32.999Z,19.00
2018-11-14T11:41:02.676Z,19.00
2018-11-14T11:43:33.375Z,19.47
2018-11-14T11:46:03.095Z,18.73
2018-11-14T11:48:38.275Z,17.60
2018-11-14T11:51:07.870Z,19.43
2018-11-14T11:53:37.814Z,18.93
2018-11-14T11:56:07.817Z,19.83
2018-11-14T11:58:37.575Z,19.37
2018-11-14T12:01:08.522Z,18.37
2018-11-14T12:03:39.282Z,19.97
2018-11-14T12:06:09.857Z,19.67
2018-11-14T12:08:39.582Z,20.87
2018-11-14T12:11:09.442Z,20.57
2018-11-14T12:13:39.205Z,18.80
2018-11-14T12:16:13.505Z,18.00
2018-11-14T12:18:43.044Z,20.67
2018-11-14T12:21:12.743Z,21.57
2018-11-14T12:23:42.588Z,17.33
2018-11-14T12:26:17.642Z,19.30
2018-11-14T12:28:47.162Z,19.07
2018-11-14T12:31:16.857Z,22.27
2018-11-14T12:33:46.664Z,20.43
2018-11-14T12:36:16.781Z,19.93
2018-11-14T12:38:46.881Z,22.60
2018-11-14T12:41:16.625Z,19.97
2018-11-14T12:43:51.822Z,20.03
2018-11-14T12:46:21.902Z,20.03
2018-11-14T12:48:51.625Z,20.27
2018-11-14T12:51:26.462Z,19.70
2018-11-14T12:53:56.306Z,19.47
2018-11-14T12:56:26.782Z,18.93
2018-11-14T12:58:56.402Z,19.07
2018-11-14T13:01:26.902Z,20.70
2018-11-14T13:03:56.483Z,19.37
2018-11-14T13:06:26.343Z,20.63
2018-11-14T13:11:29.861Z,20.93
2018-11-14T13:13:59.522Z,22.57
2018-11-14T13:16:29.622Z,20.83
2018-11-14T13:18:59.462Z,20.93
2018-11-14T13:21:29.464Z,21.73
2018-11-14T13:23:59.141Z,19.17
2018-11-14T13:26:28.742Z,21.23
2018-11-14T13:28:58.413Z,20.27
2018-11-14T13:31:28.366Z,19.90
2018-11-14T13:33:58.144Z,23.80
2018-11-14T13:36:27.983Z,19.87
2018-11-14T13:38:58.043Z,19.67
2018-11-14T13:41:27.822Z,21.87
2018-11-14T13:43:57.904Z,19.87
2018-11-14T13:46:31.702Z,20.57
2018-11-14T13:49:03.295Z,20.50
2018-11-14T13:51:33.055Z,21.93
2018-11-14T13:54:03.374Z,23.97
2018-11-14T13:56:33.415Z,20.90
2018-11-14T13:59:03.080Z,22.70
2018-11-14T14:01:32.902Z,21.80
2018-11-14T14:04:02.623Z,21.13
2018-11-14T14:06:33.057Z,21.73
2018-11-14T14:09:02.860Z,21.63
2018-11-14T14:11:32.798Z,20.80
2018-11-14T14:14:12.878Z,25.70
2018-11-14T14:16:43.957Z,26.60
2018-11-14T14:19:14.377Z,27.93
2018-11-14T14:21:44.158Z,26.73
2018-11-14T14:24:13.877Z,28.47
2018-11-14T14:26:43.798Z,31.50
2018-11-14T14:29:16.157Z,24.13
2018-11-14T14:31:47.018Z,25.97
2018-11-14T14:34:16.517Z,27.47
2018-11-14T14:36:49.701Z,25.17
2018-11-14T14:39:19.901Z,22.57
2018-11-14T14:41:49.557Z,23.50
2018-11-14T14:44:31.857Z,21.57
2018-11-14T14:47:01.763Z,24.30
2018-11-14T14:49:31.258Z,25.50
2018-11-14T14:52:00.997Z,21.93
2018-11-14T14:54:30.918Z,24.73
2018-11-14T14:57:00.737Z,20.27
2018-11-14T14:59:30.179Z,22.00
2018-11-14T15:02:00.135Z,23.47
2018-11-14T15:04:30.156Z,21.83
2018-11-14T15:07:00.195Z,22.07
2018-11-14T15:09:30.805Z,23.10
2018-11-14T15:12:04.662Z,20.83
2018-11-14T15:14:34.721Z,24.67
2018-11-14T15:17:04.343Z,22.87
2018-11-14T15:19:34.174Z,24.17
2018-11-14T15:22:04.621Z,25.57
2018-11-14T15:24:34.321Z,24.17
2018-11-14T15:27:13.402Z,24.63
2018-11-14T15:29:43.249Z,22.87
2018-11-14T15:32:12.802Z,23.63
2018-11-14T15:34:42.422Z,23.60
2018-11-14T15:37:18.769Z,26.33
2018-11-14T15:39:48.942Z,24.77
2018-11-14T15:42:25.337Z,25.17
2018-11-14T15:45:02.515Z,23.57
2018-11-14T15:47:34.936Z,23.33
2018-11-14T15:50:08.085Z,25.50
2018-11-14T15:52:41.835Z,23.37
2018-11-14T15:55:13.095Z,22.70
2018-11-14T15:57:46.270Z,24.67
2018-11-14T16:00:22.352Z,25.73
2018-11-14T16:03:01.987Z,24.90
2018-11-14T16:05:33.061Z,25.53
2018-11-14T16:08:09.556Z,24.87
2018-11-14T16:10:39.180Z,26.47
2018-11-14T16:13:09.201Z,25.03
2018-11-14T16:15:39.241Z,24.17
2018-11-14T16:18:10.114Z,25.37
2018-11-14T16:20:40.141Z,25.37
2018-11-14T16:23:09.960Z,30.87
2018-11-14T16:25:39.579Z,33.40
2018-11-14T16:28:09.360Z,28.40
2018-11-14T16:30:39.461Z,25.57
2018-11-14T16:33:10.219Z,27.57
2018-11-14T16:35:39.919Z,27.77
2018-11-14T16:38:09.471Z,35.37
2018-11-14T16:40:38.980Z,35.10
2018-11-14T16:43:09.362Z,32.03
2018-11-14T16:45:39.161Z,36.73
2018-11-14T16:48:08.698Z,35.43
2018-11-14T16:50:41.923Z,31.13
2018-11-14T16:53:11.279Z,30.70
2018-11-14T16:55:44.212Z,29.00
2018-11-14T16:58:13.690Z,29.30
2018-11-14T17:00:44.423Z,29.10
2018-11-14T17:03:13.926Z,32.30
2018-11-14T17:05:43.412Z,28.00
2018-11-14T17:08:12.963Z,29.70
2018-11-14T17:10:42.542Z,30.33
2018-11-14T17:13:11.863Z,30.33
2018-11-14T17:15:43.229Z,27.73
2018-11-14T17:18:12.617Z,26.17
2018-11-14T17:20:44.379Z,32.17
2018-11-14T17:23:13.941Z,29.10
2018-11-14T17:25:46.477Z,28.50
2018-11-14T17:28:16.236Z,28.83
2018-11-14T17:30:45.957Z,29.47
2018-11-14T17:33:15.570Z,31.03
2018-11-14T17:35:49.119Z,29.10
2018-11-14T17:38:18.555Z,33.20
2018-11-14T17:40:48.035Z,30.63
2018-11-14T17:43:17.475Z,34.10
2018-11-14T17:45:49.556Z,29.37
2018-11-14T17:48:19.566Z,34.07
2018-11-14T17:50:49.269Z,29.00
2018-11-14T17:53:18.640Z,29.50
2018-11-14T17:55:50.379Z,26.83
2018-11-14T17:58:24.120Z,29.03
2018-11-14T18:00:53.632Z,32.67
2018-11-14T18:03:23.790Z,30.67
2018-11-14T18:05:53.201Z,29.23
2018-11-14T18:08:26.296Z,28.73
2018-11-14T18:10:55.841Z,31.23
2018-11-14T18:13:25.245Z,30.50
2018-11-14T18:15:54.756Z,33.33
2018-11-14T18:18:24.196Z,31.13
2018-11-14T18:20:53.580Z,31.90
2018-11-14T18:25:56.656Z,32.53
2018-11-14T18:28:26.165Z,29.20
2018-11-14T18:30:59.346Z,32.57
2018-11-14T18:33:28.798Z,31.27
2018-11-14T18:35:58.466Z,29.07
2018-11-14T18:38:28.224Z,30.70
2018-11-14T18:41:00.314Z,29.10
2018-11-14T18:43:30.177Z,30.13
2018-11-14T18:46:00.080Z,32.03
2018-11-14T18:48:30.097Z,31.20
2018-11-14T18:51:00.051Z,29.93
2018-11-14T18:53:38.929Z,31.87
2018-11-14T18:56:09.454Z,34.67
2018-11-14T18:58:39.747Z,32.73
2018-11-14T19:01:09.905Z,31.87
2018-11-14T19:03:39.785Z,30.77
2018-11-14T19:06:10.584Z,28.57
2018-11-14T19:08:42.024Z,31.33
2018-11-14T19:11:11.744Z,30.80
2018-11-14T19:13:41.585Z,29.07
2018-11-14T19:16:11.305Z,29.50
2018-11-14T19:18:40.945Z,31.57
2018-11-14T19:21:10.925Z,30.03
2018-11-14T19:23:41.585Z,32.07
2018-11-14T19:26:11.804Z,31.27
2018-11-14T19:28:42.086Z,32.57
2018-11-14T19:31:11.905Z,36.50
2018-11-14T19:36:16.169Z,30.57
2018-11-14T19:38:47.303Z,31.10
2018-11-14T19:41:17.204Z,33.47
2018-11-14T19:46:26.420Z,34.63
2018-11-14T19:51:34.870Z,34.53
2018-11-14T19:54:04.944Z,31.97
2018-11-14T19:56:35.020Z,31.97
2018-11-14T19:59:05.020Z,34.50
2018-11-14T20:01:35.300Z,29.03
2018-11-14T20:04:05.940Z,31.63
2018-11-14T20:06:36.041Z,29.47
2018-11-14T20:09:09.880Z,28.03
2018-11-14T20:11:46.400Z,28.47
2018-11-14T20:14:16.461Z,28.73
2018-11-14T20:16:46.903Z,27.50
2018-11-14T20:19:17.551Z,29.17
2018-11-14T20:21:47.297Z,30.73
2018-11-14T20:24:17.177Z,28.67
2018-11-14T20:26:47.503Z,30.67
2018-11-14T20:29:17.141Z,30.23
2018-11-14T20:31:46.731Z,27.90
2018-11-14T20:34:20.900Z,27.70
2018-11-14T20:36:52.141Z,32.53
2018-11-14T20:39:23.746Z,33.97
2018-11-14T20:41:54.324Z,29.33
2018-11-14T20:44:25.340Z,32.13
2018-11-14T20:46:56.200Z,27.37
2018-11-14T20:49:26.199Z,32.53
2018-11-14T20:51:56.337Z,30.63
2018-11-14T20:54:26.024Z,29.33
2018-11-14T20:56:56.724Z,26.47
2018-11-14T20:59:27.264Z,25.13
2018-11-14T21:01:57.966Z,26.10
2018-11-14T21:04:28.302Z,25.60
2018-11-14T21:06:57.940Z,27.10
2018-11-14T21:09:27.703Z,28.10
2018-11-14T21:11:58.159Z,27.70
2018-11-14T21:14:28.223Z,26.40
2018-11-14T21:16:57.937Z,28.80
2018-11-14T21:19:29.538Z,27.87
2018-11-14T21:21:59.350Z,27.87
2018-11-14T21:24:29.700Z,27.33
2018-11-14T21:26:59.341Z,28.10
2018-11-14T21:29:29.188Z,33.60
2018-11-14T21:31:58.901Z,28.37
2018-11-14T21:34:29.718Z,31.30
2018-11-14T21:36:59.678Z,30.73
2018-11-14T21:39:29.238Z,31.17
2018-11-14T21:41:59.138Z,27.90
2018-11-14T21:44:28.967Z,31.20
2018-11-14T21:46:58.895Z,29.90
2018-11-14T21:49:30.055Z,33.00
2018-11-14T21:52:00.594Z,28.73
2018-11-14T21:54:30.854Z,32.23
2018-11-14T21:57:00.518Z,27.37
2018-11-14T21:59:38.432Z,29.80
2018-11-14T22:02:08.138Z,30.53
2018-11-14T22:04:38.208Z,28.03
2018-11-14T22:07:07.903Z,28.47
2018-11-14T22:09:37.857Z,28.17
2018-11-14T22:12:11.659Z,27.87
2018-11-14T22:14:41.396Z,25.43
2018-11-14T22:17:10.874Z,30.00
2018-11-14T22:19:42.589Z,24.90
2018-11-14T22:22:12.099Z,26.17
2018-11-14T22:24:41.856Z,26.77
2018-11-14T22:27:12.276Z,26.07
2018-11-14T22:29:42.256Z,24.20
2018-11-14T22:32:11.882Z,25.83
2018-11-14T22:34:42.038Z,26.33
2018-11-14T22:37:11.814Z,25.20
2018-11-14T22:39:42.435Z,22.77
2018-11-14T22:42:12.114Z,24.47
2018-11-14T22:44:42.156Z,29.57
2018-11-14T22:47:13.620Z,28.93
2018-11-14T22:49:43.114Z,26.60
2018-11-14T22:52:12.714Z,27.23
2018-11-14T22:54:51.034Z,28.40
2018-11-14T22:57:23.616Z,28.60
2018-11-14T22:59:53.655Z,28.23
2018-11-14T23:02:23.847Z,27.53
2018-11-14T23:07:27.599Z,26.60
2018-11-14T23:09:57.366Z,22.67
2018-11-14T23:12:27.079Z,27.50
2018-11-14T23:14:57.500Z,28.63
2018-11-14T23:17:27.400Z,25.57
2018-11-14T23:19:57.259Z,25.97
2018-11-14T23:22:26.739Z,25.57
2018-11-14T23:24:58.061Z,25.63
2018-11-14T23:27:27.889Z,27.00
2018-11-14T23:29:57.581Z,27.13
2018-11-14T23:32:27.260Z,25.73
2018-11-14T23:35:33.779Z,25.37
2018-11-14T23:38:04.967Z,29.63
2018-11-14T23:40:34.461Z,27.30
2018-11-14T23:43:08.942Z,27.70
2018-11-14T23:45:38.619Z,26.17
2018-11-14T23:48:22.455Z,25.50
2018-11-14T23:50:52.124Z,29.37
2018-11-14T23:53:22.215Z,23.57
2018-11-14T23:55:52.194Z,25.47
2018-11-14T23:58:22.094Z,25.50
